createdAt,value
2018-09-13T00:03:55.849Z,9.90
2018-09-13T00:09:30.385Z,9.25
2018-09-13T00:12:04.229Z,9.55
2018-09-13T00:20:37.375Z,9.07
2018-09-13T00:23:11.962Z,9.48
2018-09-13T00:28:45.181Z,9.55
2018-09-13T00:31:18.960Z,8.55
2018-09-13T00:33:53.538Z,9.45
2018-09-13T00:39:26.829Z,8.95
2018-09-13T00:42:00.659Z,9.45
2018-09-13T00:47:34.604Z,8.95
2018-09-13T00:50:08.320Z,9.77
2018-09-13T00:52:42.051Z,9.32
2018-09-13T00:55:15.838Z,9.98
2018-09-13T01:00:48.886Z,8.27
2018-09-13T01:03:22.529Z,7.85
2018-09-13T01:08:56.472Z,7.78
2018-09-13T01:14:30.339Z,7.35
2018-09-13T01:17:04.925Z,8.75
2018-09-13T01:22:38.799Z,7.37
2018-09-13T01:25:13.247Z,8.73
2018-09-13T01:27:51.926Z,7.47
2018-09-13T01:30:25.880Z,8.05
2018-09-13T01:32:59.577Z,7.80
2018-09-13T01:35:33.964Z,7.60
2018-09-13T01:38:07.884Z,7.12
2018-09-13T01:52:42.674Z,7.55
2018-09-13T01:58:15.997Z,7.75
2018-09-13T02:00:49.613Z,8.15
2018-09-13T02:03:23.343Z,6.68
2018-09-13T02:08:56.969Z,6.90
2018-09-13T02:14:30.367Z,6.30
2018-09-13T02:17:04.818Z,6.20
2018-09-13T02:19:38.621Z,6.55
2018-09-13T02:22:36.497Z,6.55
2018-09-13T02:25:11.108Z,7.25
2018-09-13T02:27:44.916Z,6.80
2018-09-13T02:33:21.821Z,6.30
2018-09-13T02:48:05.430Z,7.40
2018-09-13T02:50:39.347Z,6.87
2018-09-13T02:53:13.114Z,7.30
2018-09-13T02:55:55.149Z,7.53
2018-09-13T02:58:30.876Z,7.18
2018-09-13T03:01:05.637Z,7.78
2018-09-13T03:03:39.463Z,7.40
2018-09-13T03:06:26.283Z,8.60
2018-09-13T03:09:00.959Z,8.00
2018-09-13T03:14:34.584Z,8.85
2018-09-13T03:20:08.384Z,8.85
2018-09-13T03:22:42.943Z,10.20
2018-09-13T03:28:16.941Z,9.77
2018-09-13T03:39:51.031Z,10.60
2018-09-13T03:42:25.561Z,9.35
2018-09-13T03:50:59.728Z,8.27
2018-09-13T03:53:33.572Z,8.35
2018-09-13T03:56:07.185Z,10.60
2018-09-13T03:58:41.080Z,9.38
2018-09-13T04:01:14.933Z,10.05
2018-09-13T04:03:48.813Z,10.10
2018-09-13T04:06:24.119Z,9.05
2018-09-13T04:08:58.016Z,8.32
2018-09-13T04:11:31.804Z,8.65
2018-09-13T04:14:05.630Z,8.85
2018-09-13T04:16:40.199Z,10.85
2018-09-13T04:19:14.081Z,11.30
2018-09-13T04:21:47.874Z,9.63
2018-09-13T04:24:45.336Z,8.85
2018-09-13T04:27:19.175Z,9.50
2018-09-13T04:32:52.060Z,9.32
2018-09-13T04:35:45.919Z,10.13
2018-09-13T04:38:20.386Z,10.07
2018-09-13T04:43:53.541Z,11.02
2018-09-13T04:46:27.270Z,10.57
2018-09-13T04:49:01.146Z,9.52
2018-09-13T04:51:35.665Z,9.98
2018-09-13T04:54:09.518Z,9.50
2018-09-13T04:59:44.127Z,11.77
2018-09-13T05:02:18.224Z,10.50
2018-09-13T05:04:53.045Z,9.82
2018-09-13T05:07:27.000Z,10.05
2018-09-13T05:10:02.511Z,9.75
2018-09-13T05:12:37.071Z,9.65
2018-09-13T05:18:10.477Z,10.20
2018-09-13T05:20:45.101Z,10.77
2018-09-13T05:23:32.298Z,10.20
2018-09-13T05:26:06.920Z,9.25
2018-09-13T05:28:47.026Z,11.35
2018-09-13T05:31:20.877Z,11.50
2018-09-13T05:33:54.904Z,11.60
2018-09-13T05:36:28.710Z,11.90
2018-09-13T05:42:02.457Z,11.45
2018-09-13T05:44:36.353Z,13.05
2018-09-13T05:47:10.214Z,12.07
2018-09-13T05:52:43.718Z,10.30
2018-09-13T05:55:17.524Z,13.32
2018-09-13T05:57:52.256Z,11.45
2018-09-13T06:00:25.920Z,11.10
2018-09-13T06:02:59.672Z,12.32
2018-09-13T06:05:33.463Z,11.68
2018-09-13T06:08:08.067Z,12.13
2018-09-13T06:10:41.799Z,10.48
2018-09-13T06:13:15.649Z,11.45
2018-09-13T06:15:53.949Z,11.55
2018-09-13T06:18:37.865Z,12.55
2018-09-13T06:24:10.891Z,12.52
2018-09-13T06:29:54.564Z,12.40
2018-09-13T06:38:22.314Z,14.02
2018-09-13T06:43:56.931Z,13.20
2018-09-13T06:46:31.447Z,13.18
2018-09-13T06:52:07.725Z,13.85
2018-09-13T06:54:58.420Z,14.80
2018-09-13T06:57:32.950Z,14.38
2018-09-13T07:03:06.041Z,15.48
2018-09-13T07:05:39.811Z,13.80
2018-09-13T07:08:13.436Z,15.27
2018-09-13T07:10:47.117Z,15.38
2018-09-13T07:13:20.876Z,14.45
2018-09-13T07:18:55.155Z,16.55
2018-09-13T07:24:43.763Z,17.40
2018-09-13T07:27:18.186Z,15.48
2018-09-13T07:35:40.402Z,19.00
2018-09-13T07:38:14.199Z,17.67
2018-09-13T07:40:48.004Z,17.80
2018-09-13T07:52:21.182Z,17.58
2018-09-13T07:54:54.944Z,17.65
2018-09-13T07:57:28.784Z,16.23
2018-09-13T08:03:04.496Z,15.67
2018-09-13T08:05:42.235Z,15.77
2018-09-13T08:11:14.790Z,17.87
2018-09-13T08:13:49.672Z,16.70
2018-09-13T08:22:03.683Z,17.17
2018-09-13T08:24:37.507Z,17.47
2018-09-13T08:30:24.408Z,17.27
2018-09-13T08:32:58.236Z,16.10
2018-09-13T08:35:32.021Z,15.70
2018-09-13T08:41:06.132Z,17.30
2018-09-13T08:43:47.022Z,14.40
2018-09-13T08:46:42.257Z,16.70
2018-09-13T08:49:15.971Z,14.33
2018-09-13T08:54:48.907Z,14.97
2018-09-13T08:57:22.734Z,14.37
2018-09-13T08:59:57.360Z,14.47
2018-09-13T09:02:31.916Z,14.70
2018-09-13T09:05:05.788Z,14.90
2018-09-13T09:07:39.630Z,14.57
2018-09-13T09:10:13.375Z,14.70
2018-09-13T09:12:47.924Z,16.20
2018-09-13T09:15:23.781Z,14.17
2018-09-13T09:17:57.459Z,14.20
2018-09-13T09:26:31.936Z,14.07
2018-09-13T09:29:05.709Z,15.97
2018-09-13T09:31:40.267Z,15.87
2018-09-13T09:34:16.356Z,16.90
2018-09-13T09:36:50.879Z,15.73
2018-09-13T09:39:24.665Z,17.73
2018-09-13T09:41:58.396Z,17.10
2018-09-13T09:44:32.109Z,18.07
2018-09-13T09:47:05.927Z,16.70
2018-09-13T09:49:39.755Z,16.50
2018-09-13T09:52:14.300Z,17.40
2018-09-13T09:54:48.151Z,18.60
2018-09-13T09:57:22.718Z,16.10
2018-09-13T09:59:56.516Z,18.53
2018-09-13T10:02:30.325Z,19.20
2018-09-13T10:08:03.535Z,15.17
2018-09-13T10:13:37.222Z,15.50
2018-09-13T10:16:13.608Z,15.17
2018-09-13T10:18:49.055Z,16.43
2018-09-13T10:43:46.972Z,13.87
2018-09-13T10:46:23.448Z,13.80
2018-09-13T10:49:01.153Z,14.30
2018-09-13T10:51:37.660Z,13.90
2018-09-13T10:54:12.433Z,14.53
2018-09-13T10:56:46.142Z,13.70
2018-09-13T10:59:20.205Z,12.90
2018-09-13T11:01:54.584Z,12.20
2018-09-13T11:04:30.574Z,11.27
2018-09-13T11:07:10.952Z,11.67
2018-09-13T11:09:44.841Z,13.30
2018-09-13T11:12:21.883Z,11.27
2018-09-13T11:17:34.644Z,11.40
2018-09-13T11:20:08.475Z,12.70
2018-09-13T11:22:42.276Z,10.83
2018-09-13T11:25:23.075Z,11.30
2018-09-13T11:27:56.928Z,11.57
2018-09-13T11:33:30.975Z,11.67
2018-09-13T11:36:05.063Z,11.50
2018-09-13T11:38:38.789Z,10.23
2018-09-13T11:41:13.612Z,9.83
2018-09-13T11:43:47.502Z,11.30
2018-09-13T11:49:21.283Z,11.50
2018-09-13T11:51:55.847Z,12.47
2018-09-13T11:54:29.705Z,10.57
2018-09-13T11:57:03.475Z,11.57
2018-09-13T11:59:37.302Z,11.40
2018-09-13T12:02:10.943Z,10.00
2018-09-13T12:04:45.514Z,10.07
2018-09-13T12:07:19.329Z,10.00
2018-09-13T12:09:53.205Z,9.73
2018-09-13T12:12:27.726Z,10.60
2018-09-13T12:15:01.615Z,9.23
2018-09-13T12:17:35.406Z,8.90
2018-09-13T12:20:10.107Z,8.13
2018-09-13T12:22:43.732Z,8.80
2018-09-13T12:25:17.491Z,9.07
2018-09-13T12:27:51.211Z,8.77
2018-09-13T12:33:24.355Z,8.60
2018-09-13T12:35:58.360Z,8.30
2018-09-13T12:38:32.098Z,8.37
2018-09-13T12:41:05.843Z,7.97
2018-09-13T12:43:39.650Z,8.90
2018-09-13T12:46:13.368Z,10.67
2018-09-13T12:48:47.444Z,9.40
2018-09-13T12:51:27.028Z,9.60
2018-09-13T12:54:00.924Z,10.10
2018-09-13T12:56:48.728Z,9.80
2018-09-13T12:59:23.157Z,9.23
2018-09-13T13:01:56.919Z,9.93
2018-09-13T13:04:33.556Z,9.03
2018-09-13T13:07:07.263Z,9.30
2018-09-13T13:09:41.756Z,9.50
2018-09-13T13:12:36.987Z,9.83
2018-09-13T13:21:10.735Z,9.90
2018-09-13T13:23:44.437Z,9.10
2018-09-13T13:26:19.183Z,9.20
2018-09-13T13:28:53.737Z,9.60
2018-09-13T13:31:29.461Z,8.83
2018-09-13T13:34:03.104Z,8.80
2018-09-13T13:36:36.903Z,8.40
2018-09-13T13:39:10.638Z,9.67
2018-09-13T13:44:44.228Z,7.50
2018-09-13T13:47:18.164Z,9.00
2018-09-13T13:49:52.886Z,8.00
2018-09-13T13:52:32.496Z,10.00
2018-09-13T13:55:06.347Z,7.53
2018-09-13T13:57:40.142Z,8.73
2018-09-13T14:00:15.512Z,7.47
2018-09-13T14:02:49.304Z,8.70
2018-09-13T14:11:23.613Z,8.30
2018-09-13T14:19:42.747Z,7.10
2018-09-13T14:22:37.521Z,6.60
2018-09-13T14:25:11.432Z,5.60
2018-09-13T14:27:45.199Z,6.40
2018-09-13T14:30:19.055Z,6.00
2018-09-13T14:32:52.962Z,6.30
2018-09-13T14:38:26.354Z,6.30
2018-09-13T14:41:00.443Z,6.90
2018-09-13T14:43:38.327Z,6.83
2018-09-13T14:52:05.015Z,6.17
2018-09-13T14:54:42.941Z,6.90
2018-09-13T14:57:16.762Z,6.73
2018-09-13T14:59:51.577Z,7.57
2018-09-13T15:02:29.342Z,7.40
2018-09-13T15:08:03.681Z,8.13
2018-09-13T15:10:37.363Z,8.70
2018-09-13T15:13:12.035Z,7.80
2018-09-13T15:18:44.860Z,8.10
2018-09-13T15:21:19.344Z,9.20
2018-09-13T15:23:53.937Z,9.27
2018-09-13T15:26:27.963Z,8.20
2018-09-13T15:29:02.131Z,10.20
2018-09-13T15:34:35.791Z,7.13
2018-09-13T15:37:10.402Z,7.83
2018-09-13T15:39:49.908Z,7.00
2018-09-13T15:42:26.443Z,9.43
2018-09-13T15:45:01.142Z,8.20
2018-09-13T15:50:39.154Z,9.10
2018-09-13T15:53:12.781Z,9.93
2018-09-13T15:55:46.584Z,9.60
2018-09-13T15:58:29.411Z,10.20
2018-09-13T16:01:03.313Z,9.43
2018-09-13T16:03:51.506Z,8.40
2018-09-13T16:09:25.101Z,5.35
2018-09-13T16:14:58.454Z,5.18
2018-09-13T16:17:32.367Z,5.20
2018-09-13T16:23:06.039Z,5.70
2018-09-13T16:25:39.838Z,5.75
2018-09-13T16:28:13.767Z,5.60
2018-09-13T16:30:47.367Z,6.15
2018-09-13T16:33:21.166Z,4.82
2018-09-13T16:35:54.899Z,5.57
2018-09-13T17:00:43.944Z,4.85
2018-09-13T17:03:17.836Z,5.62
2018-09-13T17:12:02.167Z,6.05
2018-09-13T17:14:36.345Z,5.72
2018-09-13T17:20:09.666Z,4.78
2018-09-13T17:22:43.471Z,4.70
2018-09-13T17:25:17.349Z,4.78
2018-09-13T17:27:51.144Z,5.30
2018-09-13T17:30:24.871Z,4.20
2018-09-13T17:32:58.643Z,4.60
2018-09-13T17:35:32.264Z,5.22
2018-09-13T17:38:06.055Z,4.95
2018-09-13T17:40:39.841Z,4.50
2018-09-13T17:43:14.272Z,4.85
2018-09-13T17:45:47.910Z,8.10
2018-09-13T17:48:21.744Z,5.20
2018-09-13T17:50:55.558Z,5.45
2018-09-13T17:53:29.277Z,4.60
2018-09-13T17:56:03.109Z,3.92
2018-09-13T17:58:37.719Z,4.12
2018-09-13T18:01:11.556Z,5.28
2018-09-13T18:03:46.070Z,4.62
2018-09-13T18:06:20.640Z,5.30
2018-09-13T18:08:54.333Z,5.03
2018-09-13T18:11:28.000Z,4.68
2018-09-13T18:14:03.407Z,4.15
2018-09-13T18:16:37.275Z,4.90
2018-09-13T18:22:24.815Z,6.30
2018-09-13T18:33:58.295Z,13.60
2018-09-13T18:36:32.846Z,6.40
2018-09-13T18:39:06.734Z,7.22
2018-09-13T18:41:49.247Z,7.75
2018-09-13T18:44:23.163Z,6.70
2018-09-13T18:49:57.135Z,6.40
2018-09-13T18:52:38.770Z,5.60
2018-09-13T18:55:12.728Z,6.35
2018-09-13T18:57:46.543Z,4.22
2018-09-13T19:00:20.413Z,4.22
2018-09-13T19:02:55.084Z,4.57
2018-09-13T19:05:29.639Z,5.28
2018-09-13T19:11:03.356Z,6.20
2018-09-13T19:13:38.012Z,6.55
2018-09-13T19:16:11.923Z,5.70
2018-09-13T19:18:45.549Z,6.15
2018-09-13T19:21:19.289Z,6.05
2018-09-13T19:23:53.129Z,6.45
2018-09-13T19:26:29.745Z,6.22
2018-09-13T19:40:40.615Z,8.60
2018-09-13T19:43:14.279Z,7.65
2018-09-13T19:48:32.159Z,6.87
2018-09-13T19:51:06.715Z,6.55
2018-09-13T19:53:41.179Z,7.28
2018-09-13T19:59:14.060Z,7.75
2018-09-13T20:01:51.910Z,8.75
2018-09-13T20:04:25.592Z,7.80
2018-09-13T20:12:59.324Z,8.80
2018-09-13T20:15:33.144Z,8.30
2018-09-13T20:18:07.110Z,8.73
2018-09-13T20:20:40.887Z,7.43
2018-09-13T20:23:14.834Z,8.13
2018-09-13T20:25:48.658Z,7.40
2018-09-13T20:31:21.645Z,10.07
2018-09-13T20:36:56.299Z,7.90
2018-09-13T20:39:30.171Z,7.20
2018-09-13T20:42:04.080Z,7.05
2018-09-13T20:44:38.760Z,8.00
2018-09-13T20:47:12.433Z,6.87
2018-09-13T20:49:46.365Z,7.80
2018-09-13T20:52:20.194Z,7.07
2018-09-13T20:54:54.093Z,7.65
2018-09-13T20:57:27.763Z,7.37
2018-09-13T21:00:01.646Z,6.95
2018-09-13T21:02:36.332Z,6.50
2018-09-13T21:05:10.076Z,12.15
2018-09-13T21:07:44.665Z,8.10
2018-09-13T21:13:18.806Z,8.30
2018-09-13T21:18:52.620Z,8.32
2018-09-13T21:24:27.174Z,10.35
2018-09-13T21:27:00.923Z,8.00
2018-09-13T21:29:34.796Z,7.47
2018-09-13T21:32:23.316Z,7.57
2018-09-13T21:34:57.046Z,8.80
2018-09-13T21:40:30.399Z,8.15
2018-09-13T21:43:04.999Z,9.30
2018-09-13T21:45:38.849Z,8.95
2018-09-13T21:51:11.895Z,9.20
2018-09-13T21:53:46.338Z,9.68
2018-09-13T21:56:19.975Z,9.77
2018-09-13T22:01:52.613Z,10.75
2018-09-13T22:04:27.123Z,9.55
2018-09-13T22:07:00.816Z,9.70
2018-09-13T22:12:35.656Z,10.25
2018-09-13T22:21:09.349Z,10.13
2018-09-13T22:23:43.114Z,10.80
2018-09-13T22:26:17.803Z,10.55
2018-09-13T22:28:52.255Z,11.20
2018-09-13T22:31:27.731Z,11.43
2018-09-13T22:34:02.356Z,11.50
2018-09-13T22:36:36.064Z,12.30
2018-09-13T22:42:09.598Z,11.20
2018-09-13T22:47:42.831Z,14.27
2018-09-13T22:50:16.610Z,13.88
2018-09-13T22:52:51.227Z,13.73
2018-09-13T22:55:26.605Z,14.73
2018-09-13T22:58:00.407Z,15.10
2018-09-13T23:00:34.182Z,14.30
2018-09-13T23:03:08.793Z,15.60
2018-09-13T23:08:41.991Z,16.42
2018-09-13T23:11:20.793Z,16.85
2018-09-13T23:13:55.270Z,15.90
2018-09-13T23:16:29.050Z,16.58
2018-09-13T23:22:04.097Z,18.67
2018-09-13T23:24:37.957Z,18.00
2018-09-13T23:27:11.802Z,21.60
2018-09-13T23:29:45.594Z,20.30
2018-09-13T23:32:39.546Z,19.08
2018-09-13T23:35:13.375Z,22.33
2018-09-13T23:37:47.952Z,20.73
2018-09-13T23:43:21.057Z,21.05
2018-09-13T23:54:54.590Z,25.10
2018-09-13T23:57:28.483Z,24.37
